PWSweather.com
Personal Weather Stations
Station Observations
WILS01
Leuven, WilseleBE 3012

LeuvenWilseleBE 3012

Lat: 50.89518, Lon: 4.69741

Elevation: 120

Station Type: DAVIS VP2

Latest ConditionsUpdated 8:55:33 PM GMT+01:01 Monday, Mar 30, 2015
Currently Today's Max Today's Min Today's Average
Temperature 47.8°F8.8°C 51.8°F11.0°C 44.2°F6.8°C 47.6°F8.7°C
Dew Point 37.8°F3.2°C 43.7°F6.5°C 34.2°F1.2°C 38.8°F3.8°C
Winds 2.9 mph WSW4.7 kmh WSW 6.5 mph WSW10.5 kmh WSW - 3.1 mph 5.0 kmh
Wind Gusts 3.8 mph6.1 kmh 6.9 mph11.1 kmh - -
Humidity 68% 88% 53% 72%
Pressure 29.80 in1009.1 mb 29.88 in1011.9 mb 29.49 in998.6 mb -
Precipitation - 0.01 in0.3 mm - -
Hour Temp Dew Point Humidity Winds Wind Gusts Pressure Precip Precip Rate Daily Precip Total
08:55 PM 47.8°F8.8°C 37.8°F3.2°C 68% 2.9 mph WSW4.7 kmh WSW 3.8 mph6.1 kmh 29.80 in1009.1 mb - 0.00 in0.0 mm 0.01 in0.3 mm
08:45 PM 47.8°F8.8°C 37.4°F3.0°C 67% 4.0 mph SW6.4 kmh SW 3.6 mph5.8 kmh 29.80 in1009.1 mb - 0.00 in0.0 mm 0.01 in0.3 mm
08:35 PM 47.8°F8.8°C 37.4°F3.0°C 67% 3.8 mph SW6.1 kmh SW 3.8 mph6.1 kmh 29.81 in1009.5 mb - 0.00 in0.0 mm 0.01 in0.3 mm
08:24 PM 48.0°F8.9°C 37.8°F3.2°C 67% 2.9 mph SW4.7 kmh SW 4.5 mph7.2 kmh 29.81 in1009.5 mb - 0.00 in0.0 mm 0.01 in0.3 mm
08:14 PM 48.0°F8.9°C 37.6°F3.1°C 67% 3.4 mph SW5.5 kmh SW 2.9 mph4.7 kmh 29.83 in1010.2 mb - 0.00 in0.0 mm 0.01 in0.3 mm
08:04 PM 48.4°F9.1°C 37.9°F3.3°C 67% 4.0 mph SW6.4 kmh SW 4.3 mph6.9 kmh 29.83 in1010.2 mb - 0.00 in0.0 mm 0.01 in0.3 mm
07:53 PM 48.4°F9.1°C 37.9°F3.3°C 67% 2.9 mph SW4.7 kmh SW 3.8 mph6.1 kmh 29.83 in1010.2 mb - 0.00 in0.0 mm 0.01 in0.3 mm
07:43 PM 48.4°F9.1°C 37.9°F3.3°C 67% 2.9 mph SSW4.7 kmh SSW 2.5 mph4.0 kmh 29.84 in1010.5 mb - 0.00 in0.0 mm 0.01 in0.3 mm
07:33 PM 48.4°F9.1°C 37.8°F3.2°C 66% 2.0 mph SW3.2 kmh SW 3.6 mph5.8 kmh 29.85 in1010.8 mb - 0.00 in0.0 mm 0.01 in0.3 mm
07:22 PM 48.4°F9.1°C 37.6°F3.1°C 66% 2.5 mph SW4.0 kmh SW 3.6 mph5.8 kmh 29.85 in1010.8 mb - 0.00 in0.0 mm 0.01 in0.3 mm
07:12 PM 48.6°F9.2°C 37.6°F3.1°C 65% 2.0 mph SW3.2 kmh SW 1.6 mph2.6 kmh 29.84 in1010.5 mb - 0.00 in0.0 mm 0.01 in0.3 mm
07:02 PM 48.7°F9.3°C 37.0°F2.8°C 64% 2.9 mph SW4.7 kmh SW 2.2 mph3.5 kmh 29.86 in1011.2 mb - 0.00 in0.0 mm 0.01 in0.3 mm
06:51 PM 48.9°F9.4°C 36.9°F2.7°C 63% 2.9 mph SW4.7 kmh SW 2.5 mph4.0 kmh 29.86 in1011.2 mb - 0.00 in0.0 mm 0.01 in0.3 mm
06:41 PM 49.3°F9.6°C 36.7°F2.6°C 61% 2.7 mph SW4.3 kmh SW 3.1 mph5.0 kmh 29.86 in1011.2 mb - 0.00 in0.0 mm 0.01 in0.3 mm
06:31 PM 49.5°F9.7°C 36.5°F2.5°C 60% 2.5 mph WSW4.0 kmh WSW 2.0 mph3.2 kmh 29.86 in1011.2 mb - 0.00 in0.0 mm 0.01 in0.3 mm
06:20 PM 49.5°F9.7°C 36.1°F2.3°C 59% 2.9 mph SW4.7 kmh SW 3.6 mph5.8 kmh 29.86 in1011.2 mb - 0.00 in0.0 mm 0.01 in0.3 mm
06:10 PM 49.6°F9.8°C 36.1°F2.3°C 59% 2.0 mph SW3.2 kmh SW 2.2 mph3.5 kmh 29.86 in1011.2 mb - 0.00 in0.0 mm 0.01 in0.3 mm
05:59 PM 49.8°F9.9°C 36.1°F2.3°C 59% 1.3 mph SW2.1 kmh SW 2.2 mph3.5 kmh 29.87 in1011.5 mb - 0.00 in0.0 mm 0.01 in0.3 mm
05:49 PM 49.8°F9.9°C 36.1°F2.3°C 59% 0.9 mph WSW1.4 kmh WSW 1.1 mph1.8 kmh 29.88 in1011.9 mb - 0.00 in0.0 mm 0.01 in0.3 mm
05:39 PM 50.0°F10.0°C 35.2°F1.8°C 56% 2.7 mph WSW4.3 kmh WSW 2.5 mph4.0 kmh 29.88 in1011.9 mb - 0.00 in0.0 mm 0.01 in0.3 mm
05:28 PM 50.7°F10.4°C 35.1°F1.7°C 55% 2.0 mph WSW3.2 kmh WSW 2.0 mph3.2 kmh 29.88 in1011.9 mb - 0.00 in0.0 mm 0.01 in0.3 mm
05:18 PM 51.4°F10.8°C 35.8°F2.1°C 55% 2.7 mph SW4.3 kmh SW 2.0 mph3.2 kmh 29.88 in1011.9 mb - 0.00 in0.0 mm 0.01 in0.3 mm
05:08 PM 51.3°F10.7°C 35.4°F1.9°C 54% 3.6 mph WSW5.8 kmh WSW 3.4 mph5.5 kmh 29.88 in1011.9 mb - 0.00 in0.0 mm 0.01 in0.3 mm
04:58 PM 51.1°F10.6°C 34.7°F1.5°C 53% 3.4 mph WSW5.5 kmh WSW 4.7 mph7.6 kmh 29.88 in1011.9 mb - 0.00 in0.0 mm 0.01 in0.3 mm
04:47 PM 50.9°F10.5°C 34.5°F1.4°C 53% 4.0 mph SW6.4 kmh SW 2.0 mph3.2 kmh 29.88 in1011.9 mb - 0.00 in0.0 mm 0.01 in0.3 mm
04:37 PM 50.7°F10.4°C 35.1°F1.7°C 54% 3.4 mph SW5.5 kmh SW 3.6 mph5.8 kmh 29.87 in1011.5 mb - 0.00 in0.0 mm 0.01 in0.3 mm
04:27 PM 49.8°F9.9°C 35.4°F1.9°C 57% 3.4 mph W5.5 kmh W 3.1 mph5.0 kmh 29.87 in1011.5 mb - 0.00 in0.0 mm 0.01 in0.3 mm
04:17 PM 50.4°F10.2°C 34.5°F1.4°C 54% 3.1 mph SSW5.0 kmh SSW 4.0 mph6.4 kmh 29.87 in1011.5 mb - 0.00 in0.0 mm 0.01 in0.3 mm
04:06 PM 50.7°F10.4°C 36.3°F2.4°C 57% 2.9 mph SW4.7 kmh SW 2.7 mph4.3 kmh 29.88 in1011.9 mb - 0.00 in0.0 mm 0.01 in0.3 mm
03:56 PM 51.3°F10.7°C 36.3°F2.4°C 56% 3.1 mph WSW5.0 kmh WSW 2.9 mph4.7 kmh 29.88 in1011.9 mb - 0.00 in0.0 mm 0.01 in0.3 mm
03:45 PM 50.7°F10.4°C 34.9°F1.6°C 54% 4.0 mph W6.4 kmh W 4.5 mph7.2 kmh 29.87 in1011.5 mb - 0.00 in0.0 mm 0.01 in0.3 mm
03:35 PM 51.1°F10.6°C 35.1°F1.7°C 54% 4.0 mph SW6.4 kmh SW 2.9 mph4.7 kmh 29.86 in1011.2 mb - 0.00 in0.0 mm 0.01 in0.3 mm
03:25 PM 51.8°F11.0°C 36.5°F2.5°C 55% 4.5 mph SW7.2 kmh SW 4.9 mph7.9 kmh 29.86 in1011.2 mb - 0.00 in0.0 mm 0.01 in0.3 mm
03:14 PM 51.6°F10.9°C 36.3°F2.4°C 55% 4.9 mph WSW7.9 kmh WSW 3.6 mph5.8 kmh 29.86 in1011.2 mb - 0.00 in0.0 mm 0.01 in0.3 mm
03:04 PM 51.3°F10.7°C 35.6°F2.0°C 54% 4.9 mph WNW7.9 kmh WNW 5.4 mph8.7 kmh 29.86 in1011.2 mb - 0.00 in0.0 mm 0.01 in0.3 mm
02:54 PM 50.5°F10.3°C 35.4°F1.9°C 56% 4.9 mph SW7.9 kmh SW 4.7 mph7.6 kmh 29.86 in1011.2 mb - 0.00 in0.0 mm 0.01 in0.3 mm
02:44 PM 49.3°F9.6°C 35.2°F1.8°C 58% 5.6 mph WSW9.0 kmh WSW 4.9 mph7.9 kmh 29.86 in1011.2 mb - 0.00 in0.0 mm 0.01 in0.3 mm
02:33 PM 50.4°F10.2°C 36.1°F2.3°C 58% 4.0 mph W6.4 kmh W 6.5 mph10.5 kmh 29.87 in1011.5 mb - 0.00 in0.0 mm 0.01 in0.3 mm
02:23 PM 50.2°F10.1°C 37.9°F3.3°C 62% 4.7 mph SW7.6 kmh SW 2.7 mph4.3 kmh 29.86 in1011.2 mb - 0.00 in0.0 mm 0.01 in0.3 mm
02:13 PM 49.3°F9.6°C 35.4°F1.9°C 58% 4.7 mph SW7.6 kmh SW 5.6 mph9.0 kmh 29.86 in1011.2 mb - 0.00 in0.0 mm 0.01 in0.3 mm
02:03 PM 49.3°F9.6°C 34.7°F1.5°C 57% 4.9 mph WNW7.9 kmh WNW 4.9 mph7.9 kmh 29.85 in1010.8 mb - 0.00 in0.0 mm 0.01 in0.3 mm
01:52 PM 50.7°F10.4°C 35.6°F2.0°C 55% 4.9 mph W7.9 kmh W 4.3 mph6.9 kmh 29.85 in1010.8 mb - 0.00 in0.0 mm 0.01 in0.3 mm
01:42 PM 49.6°F9.8°C 35.2°F1.8°C 57% 4.9 mph SW7.9 kmh SW 5.1 mph8.2 kmh 29.84 in1010.5 mb - 0.00 in0.0 mm 0.01 in0.3 mm
01:31 PM 49.5°F9.7°C 35.6°F2.0°C 58% 4.9 mph SW7.9 kmh SW 5.4 mph8.7 kmh 29.84 in1010.5 mb - 0.00 in0.0 mm 0.01 in0.3 mm
01:21 PM 48.4°F9.1°C 34.2°F1.2°C 57% 4.9 mph WNW7.9 kmh WNW 4.3 mph6.9 kmh 29.84 in1010.5 mb - 0.00 in0.0 mm 0.01 in0.3 mm
01:11 PM 48.9°F9.4°C 35.4°F1.9°C 59% 4.3 mph WNW6.9 kmh WNW 4.9 mph7.9 kmh 29.84 in1010.5 mb - 0.00 in0.0 mm 0.01 in0.3 mm
01:00 PM 48.9°F9.4°C 35.2°F1.8°C 59% 4.9 mph WNW7.9 kmh WNW 3.6 mph5.8 kmh 29.83 in1010.2 mb - 0.00 in0.0 mm 0.01 in0.3 mm
12:50 PM 49.3°F9.6°C 37.0°F2.8°C 62% 5.8 mph WSW9.3 kmh WSW 5.6 mph9.0 kmh 29.83 in1010.2 mb - 0.00 in0.0 mm 0.01 in0.3 mm
12:40 PM 49.3°F9.6°C 37.2°F2.9°C 63% 6.0 mph SW9.7 kmh SW 5.6 mph9.0 kmh 29.82 in1009.8 mb - 0.00 in0.0 mm 0.01 in0.3 mm
12:29 PM 48.2°F9.0°C 37.8°F3.2°C 67% 4.0 mph WNW6.4 kmh WNW 5.1 mph8.2 kmh 29.82 in1009.8 mb - 0.00 in0.0 mm 0.01 in0.3 mm
12:19 PM 47.3°F8.5°C 38.8°F3.8°C 72% 4.7 mph WSW7.6 kmh WSW 4.0 mph6.4 kmh 29.81 in1009.5 mb - 0.00 in0.0 mm 0.01 in0.3 mm
12:08 PM 46.0°F7.8°C 37.9°F3.3°C 72% 5.6 mph WSW9.0 kmh WSW 4.7 mph7.6 kmh 29.80 in1009.1 mb - 0.00 in0.0 mm 0.01 in0.3 mm
11:58 AM 48.0°F8.9°C 37.6°F3.1°C 67% 6.5 mph WSW10.5 kmh WSW 6.9 mph11.1 kmh 29.79 in1008.8 mb - 0.00 in0.0 mm 0.01 in0.3 mm
11:48 AM 47.8°F8.8°C 37.8°F3.2°C 67% 6.0 mph W9.7 kmh W 5.8 mph9.3 kmh 29.79 in1008.8 mb - 0.00 in0.0 mm 0.01 in0.3 mm
11:37 AM 48.4°F9.1°C 38.3°F3.5°C 67% 4.9 mph W7.9 kmh W 4.7 mph7.6 kmh 29.78 in1008.5 mb - 0.00 in0.0 mm 0.01 in0.3 mm
11:27 AM 48.4°F9.1°C 38.7°F3.7°C 69% 4.3 mph WSW6.9 kmh WSW 4.9 mph7.9 kmh 29.77 in1008.1 mb - 0.00 in0.0 mm 0.01 in0.3 mm
11:17 AM 47.3°F8.5°C 39.6°F4.2°C 74% 4.0 mph SW6.4 kmh SW 4.3 mph6.9 kmh 29.77 in1008.1 mb - 0.00 in0.0 mm 0.01 in0.3 mm
11:06 AM 46.0°F7.8°C 38.5°F3.6°C 75% 4.9 mph WSW7.9 kmh WSW 4.0 mph6.4 kmh 29.76 in1007.8 mb - 0.00 in0.0 mm 0.01 in0.3 mm
10:56 AM 46.4°F8.0°C 39.2°F4.0°C 75% 3.4 mph SSW5.5 kmh SSW 6.0 mph9.7 kmh 29.75 in1007.5 mb - 0.00 in0.0 mm 0.01 in0.3 mm
10:46 AM 46.0°F7.8°C 39.9°F4.4°C 79% 2.0 mph SSW3.2 kmh SSW 3.4 mph5.5 kmh 29.75 in1007.5 mb - 0.00 in0.0 mm 0.01 in0.3 mm
10:36 AM 45.5°F7.5°C 39.7°F4.3°C 80% 2.0 mph W3.2 kmh W 2.2 mph3.5 kmh 29.75 in1007.5 mb - 0.00 in0.0 mm 0.01 in0.3 mm
10:25 AM 45.7°F7.6°C 39.0°F3.9°C 77% 2.9 mph W4.7 kmh W 2.2 mph3.5 kmh 29.74 in1007.1 mb - 0.00 in0.0 mm 0.01 in0.3 mm
10:15 AM 46.8°F8.2°C 38.1°F3.4°C 71% 4.0 mph SW6.4 kmh SW 4.3 mph6.9 kmh 29.74 in1007.1 mb - 0.00 in0.0 mm 0.01 in0.3 mm
10:05 AM 46.8°F8.2°C 38.1°F3.4°C 71% 2.9 mph SW4.7 kmh SW 2.7 mph4.3 kmh 29.73 in1006.8 mb - 0.00 in0.0 mm 0.01 in0.3 mm
09:54 AM 46.8°F8.2°C 37.8°F3.2°C 70% 3.1 mph SW5.0 kmh SW 2.9 mph4.7 kmh 29.73 in1006.8 mb - 0.00 in0.0 mm 0.01 in0.3 mm
09:44 AM 46.8°F8.2°C 37.6°F3.1°C 70% 4.5 mph WSW7.2 kmh WSW 3.6 mph5.8 kmh 29.73 in1006.8 mb - 0.00 in0.0 mm 0.01 in0.3 mm
09:34 AM 46.6°F8.1°C 37.8°F3.2°C 71% 4.0 mph SW6.4 kmh SW 4.7 mph7.6 kmh 29.73 in1006.8 mb - 0.00 in0.0 mm 0.01 in0.3 mm
09:23 AM 46.4°F8.0°C 37.9°F3.3°C 72% 4.0 mph WNW6.4 kmh WNW 3.4 mph5.5 kmh 29.72 in1006.4 mb - 0.00 in0.0 mm 0.01 in0.3 mm
09:13 AM 46.2°F7.9°C 37.9°F3.3°C 72% 4.5 mph WSW7.2 kmh WSW 3.4 mph5.5 kmh 29.71 in1006.1 mb - 0.00 in0.0 mm 0.01 in0.3 mm
09:03 AM 46.0°F7.8°C 38.1°F3.4°C 73% 4.9 mph W7.9 kmh W 4.5 mph7.2 kmh 29.71 in1006.1 mb - 0.00 in0.0 mm 0.01 in0.3 mm
08:52 AM 45.5°F7.5°C 38.1°F3.4°C 75% 4.3 mph W6.9 kmh W 5.8 mph9.3 kmh 29.70 in1005.8 mb - 0.00 in0.0 mm 0.01 in0.3 mm
08:42 AM 45.7°F7.6°C 38.5°F3.6°C 76% 3.1 mph W5.0 kmh W 3.4 mph5.5 kmh 29.69 in1005.4 mb - 0.00 in0.0 mm 0.01 in0.3 mm
08:31 AM 45.9°F7.7°C 39.4°F4.1°C 78% 4.7 mph W7.6 kmh W 2.2 mph3.5 kmh 29.69 in1005.4 mb - 0.00 in0.0 mm 0.01 in0.3 mm
08:21 AM 45.3°F7.4°C 39.6°F4.2°C 80% 4.0 mph WNW6.4 kmh WNW 4.3 mph6.9 kmh 29.68 in1005.1 mb - 0.00 in0.0 mm 0.01 in0.3 mm
08:11 AM 45.3°F7.4°C 40.3°F4.6°C 82% 2.0 mph WSW3.2 kmh WSW 3.1 mph5.0 kmh 29.67 in1004.7 mb - 0.00 in0.0 mm 0.00 in0.0 mm
08:01 AM 45.3°F7.4°C 40.5°F4.7°C 83% 2.9 mph WSW4.7 kmh WSW 2.0 mph3.2 kmh 29.67 in1004.7 mb - 0.00 in0.0 mm 0.00 in0.0 mm
07:50 AM 45.1°F7.3°C 40.5°F4.7°C 83% 2.9 mph W4.7 kmh W 2.5 mph4.0 kmh 29.65 in1004.1 mb - 0.00 in0.0 mm 0.00 in0.0 mm
07:40 AM 45.1°F7.3°C 40.6°F4.8°C 84% 2.0 mph SW3.2 kmh SW 1.6 mph2.6 kmh 29.65 in1004.1 mb - 0.00 in0.0 mm 0.00 in0.0 mm
07:30 AM 45.0°F7.2°C 40.5°F4.7°C 84% 2.7 mph WNW4.3 kmh WNW 2.7 mph4.3 kmh 29.65 in1004.1 mb - 0.00 in0.0 mm 0.00 in0.0 mm
07:20 AM 45.0°F7.2°C 40.5°F4.7°C 84% 2.0 mph SSW3.2 kmh SSW 1.8 mph2.9 kmh 29.63 in1003.4 mb - 0.00 in0.0 mm 0.00 in0.0 mm
07:09 AM 45.0°F7.2°C 40.5°F4.7°C 84% 2.9 mph W4.7 kmh W 2.7 mph4.3 kmh 29.63 in1003.4 mb - 0.00 in0.0 mm 0.00 in0.0 mm
06:59 AM 44.8°F7.1°C 40.5°F4.7°C 84% 2.2 mph WSW3.5 kmh WSW 1.8 mph2.9 kmh 29.62 in1003.0 mb - 0.00 in0.0 mm 0.00 in0.0 mm
06:49 AM 44.8°F7.1°C 40.5°F4.7°C 85% 2.0 mph WSW3.2 kmh WSW 2.0 mph3.2 kmh 29.62 in1003.0 mb - 0.00 in0.0 mm 0.00 in0.0 mm
06:39 AM 44.8°F7.1°C 40.5°F4.7°C 85% 2.0 mph SW3.2 kmh SW 2.9 mph4.7 kmh 29.61 in1002.7 mb - 0.00 in0.0 mm 0.00 in0.0 mm
06:28 AM 44.4°F6.9°C 40.3°F4.6°C 85% 2.0 mph WSW3.2 kmh WSW 1.8 mph2.9 kmh 29.60 in1002.4 mb - 0.00 in0.0 mm 0.00 in0.0 mm
06:18 AM 44.2°F6.8°C 39.7°F4.3°C 84% 1.6 mph SW2.6 kmh SW 2.2 mph3.5 kmh 29.60 in1002.4 mb - 0.00 in0.0 mm 0.00 in0.0 mm
06:07 AM 44.4°F6.9°C 39.9°F4.4°C 84% 2.0 mph SSW3.2 kmh SSW 1.1 mph1.8 kmh 29.59 in1002.0 mb - 0.00 in0.0 mm 0.00 in0.0 mm
05:57 AM 44.4°F6.9°C 39.9°F4.4°C 84% 2.0 mph SW3.2 kmh SW 2.5 mph4.0 kmh 29.58 in1001.7 mb - 0.00 in0.0 mm 0.00 in0.0 mm
05:47 AM 44.6°F7.0°C 40.1°F4.5°C 84% 2.0 mph WSW3.2 kmh WSW 1.8 mph2.9 kmh 29.57 in1001.4 mb - 0.00 in0.0 mm 0.00 in0.0 mm
05:37 AM 44.8°F7.1°C 40.5°F4.7°C 84% 2.0 mph SW3.2 kmh SW 1.6 mph2.6 kmh 29.57 in1001.4 mb - 0.00 in0.0 mm 0.00 in0.0 mm
05:27 AM 45.0°F7.2°C 40.5°F4.7°C 84% 2.0 mph SW3.2 kmh SW 2.0 mph3.2 kmh 29.56 in1001.0 mb - 0.00 in0.0 mm 0.00 in0.0 mm
05:16 AM 45.1°F7.3°C 40.6°F4.8°C 84% 2.2 mph SW3.5 kmh SW 3.1 mph5.0 kmh 29.56 in1001.0 mb - 0.00 in0.0 mm 0.00 in0.0 mm
05:06 AM 45.3°F7.4°C 40.8°F4.9°C 84% 2.9 mph SW4.7 kmh SW 2.2 mph3.5 kmh 29.56 in1001.0 mb - 0.00 in0.0 mm 0.00 in0.0 mm
04:56 AM 45.3°F7.4°C 40.8°F4.9°C 84% 2.0 mph WSW3.2 kmh WSW 2.2 mph3.5 kmh 29.56 in1001.0 mb - 0.00 in0.0 mm 0.00 in0.0 mm
04:46 AM 45.7°F7.6°C 41.2°F5.1°C 84% 2.0 mph SW3.2 kmh SW 2.5 mph4.0 kmh 29.55 in1000.7 mb - 0.00 in0.0 mm 0.00 in0.0 mm
04:35 AM 45.7°F7.6°C 41.4°F5.2°C 85% 2.9 mph WSW4.7 kmh WSW 2.5 mph4.0 kmh 29.55 in1000.7 mb - 0.00 in0.0 mm 0.00 in0.0 mm
04:25 AM 45.5°F7.5°C 41.2°F5.1°C 85% 1.1 mph SW1.8 kmh SW 3.1 mph5.0 kmh 29.55 in1000.7 mb - 0.00 in0.0 mm 0.00 in0.0 mm
04:15 AM 45.3°F7.4°C 41.0°F5.0°C 85% 0.9 mph WSW1.4 kmh WSW 0.9 mph1.4 kmh 29.55 in1000.7 mb - 0.00 in0.0 mm 0.00 in0.0 mm
04:05 AM 45.1°F7.3°C 40.8°F4.9°C 85% 0.9 mph SW1.4 kmh SW 1.3 mph2.1 kmh 29.55 in1000.7 mb - 0.00 in0.0 mm 0.00 in0.0 mm
03:54 AM 45.1°F7.3°C 40.8°F4.9°C 85% Calm Calm 0.9 mph1.4 kmh 29.54 in1000.3 mb - 0.00 in0.0 mm 0.00 in0.0 mm
03:44 AM 45.5°F7.5°C 41.2°F5.1°C 84% 0.9 mph SW1.4 kmh SW 0.9 mph1.4 kmh 29.54 in1000.3 mb - 0.00 in0.0 mm 0.00 in0.0 mm
03:34 AM 45.7°F7.6°C 41.2°F5.1°C 84% 2.0 mph W3.2 kmh W 2.0 mph3.2 kmh 29.54 in1000.3 mb - 0.00 in0.0 mm 0.00 in0.0 mm
03:23 AM 45.9°F7.7°C 41.4°F5.2°C 84% 0.4 mph SW0.6 kmh SW 1.6 mph2.6 kmh 29.53 in1000.0 mb - 0.00 in0.0 mm 0.00 in0.0 mm
03:13 AM 46.0°F7.8°C 41.5°F5.3°C 84% 2.0 mph WSW3.2 kmh WSW 1.3 mph2.1 kmh 29.53 in1000.0 mb - 0.00 in0.0 mm 0.00 in0.0 mm
03:02 AM 46.2°F7.9°C 41.9°F5.5°C 85% 2.0 mph WSW3.2 kmh WSW 3.8 mph6.1 kmh 29.53 in1000.0 mb - 0.00 in0.0 mm 0.00 in0.0 mm
02:52 AM 46.4°F8.0°C 42.1°F5.6°C 85% 2.0 mph SW3.2 kmh SW 2.2 mph3.5 kmh 29.53 in1000.0 mb - 0.00 in0.0 mm 0.00 in0.0 mm
02:41 AM 46.8°F8.2°C 42.4°F5.8°C 85% 2.0 mph WSW3.2 kmh WSW 2.5 mph4.0 kmh 29.53 in1000.0 mb - 0.00 in0.0 mm 0.00 in0.0 mm
02:31 AM 46.9°F8.3°C 42.6°F5.9°C 85% 0.9 mph SW1.4 kmh SW 2.0 mph3.2 kmh 29.53 in1000.0 mb - 0.00 in0.0 mm 0.00 in0.0 mm
02:21 AM 47.1°F8.4°C 42.8°F6.0°C 85% 2.0 mph WSW3.2 kmh WSW 2.9 mph4.7 kmh 29.53 in1000.0 mb - 0.00 in0.0 mm 0.00 in0.0 mm
02:11 AM 47.3°F8.5°C 43.0°F6.1°C 85% 2.0 mph SW3.2 kmh SW 1.6 mph2.6 kmh 29.54 in1000.3 mb - 0.00 in0.0 mm 0.00 in0.0 mm
02:00 AM 47.7°F8.7°C 43.3°F6.3°C 85% 2.5 mph W4.0 kmh W 2.0 mph3.2 kmh 29.54 in1000.3 mb - 0.00 in0.0 mm 0.00 in0.0 mm
01:50 AM 47.7°F8.7°C 43.0°F6.1°C 84% 2.0 mph WSW3.2 kmh WSW 2.7 mph4.3 kmh 29.52 in999.7 mb - 0.00 in0.0 mm 0.00 in0.0 mm
01:40 AM 47.7°F8.7°C 43.0°F6.1°C 84% 2.2 mph SW3.5 kmh SW 0.9 mph1.4 kmh 29.51 in999.3 mb - 0.00 in0.0 mm 0.00 in0.0 mm
01:30 AM 47.7°F8.7°C 43.0°F6.1°C 84% 2.0 mph WSW3.2 kmh WSW 2.0 mph3.2 kmh 29.52 in999.7 mb - 0.00 in0.0 mm 0.00 in0.0 mm
01:20 AM 47.5°F8.6°C 43.2°F6.2°C 85% 2.0 mph SW3.2 kmh SW 1.6 mph2.6 kmh 29.52 in999.7 mb - 0.00 in0.0 mm 0.00 in0.0 mm
01:09 AM 47.5°F8.6°C 43.2°F6.2°C 85% 2.0 mph WSW3.2 kmh WSW 1.6 mph2.6 kmh 29.52 in999.7 mb - 0.00 in0.0 mm 0.00 in0.0 mm
12:59 AM 47.5°F8.6°C 43.2°F6.2°C 84% 2.9 mph SW4.7 kmh SW 2.9 mph4.7 kmh 29.51 in999.3 mb - 0.00 in0.0 mm 0.00 in0.0 mm
12:49 AM 47.5°F8.6°C 43.0°F6.1°C 84% 2.9 mph WSW4.7 kmh WSW 3.8 mph6.1 kmh 29.50 in999.0 mb - 0.00 in0.0 mm 0.00 in0.0 mm
12:38 AM 47.5°F8.6°C 43.2°F6.2°C 85% 4.0 mph WSW6.4 kmh WSW 3.8 mph6.1 kmh 29.50 in999.0 mb - 0.00 in0.0 mm 0.00 in0.0 mm
12:28 AM 47.1°F8.4°C 43.3°F6.3°C 86% 4.0 mph WSW6.4 kmh WSW 5.1 mph8.2 kmh 29.49 in998.6 mb - 0.00 in0.0 mm 0.00 in0.0 mm
12:18 AM 47.1°F8.4°C 43.7°F6.5°C 88% 3.4 mph SW5.5 kmh SW 4.3 mph6.9 kmh 29.49 in998.6 mb - 0.00 in0.0 mm 0.00 in0.0 mm
12:07 AM 47.8°F8.8°C 43.3°F6.3°C 84% 3.6 mph SW5.8 kmh SW 3.8 mph6.1 kmh 29.50 in999.0 mb - 0.00 in0.0 mm 0.00 in0.0 mm